sensor_id;sensor_type;location;lat;lon;timestamp;pressure;altitude;pressure_sealevel;temperature;humidity
50093;BME280;35974;47.752;10.290;2023-05-23T00:00:08;93692.56;;;13.59;100.00
50093;BME280;35974;47.752;10.290;2023-05-23T00:02:36;93704.69;;;13.60;100.00
50093;BME280;35974;47.752;10.290;2023-05-23T00:05:03;93704.19;;;13.40;100.00
50093;BME280;35974;47.752;10.290;2023-05-23T00:07:29;93707.91;;;13.32;100.00
50093;BME280;35974;47.752;10.290;2023-05-23T00:09:57;93707.31;;;13.30;100.00
50093;BME280;35974;47.752;10.290;2023-05-23T00:12:23;93701.38;;;13.23;100.00
50093;BME280;35974;47.752;10.290;2023-05-23T00:14:50;93712.00;;;13.28;100.00
50093;BME280;35974;47.752;10.290;2023-05-23T00:17:18;93700.47;;;13.29;100.00
50093;BME280;35974;47.752;10.290;2023-05-23T00:19:47;93705.34;;;13.13;100.00
50093;BME280;35974;47.752;10.290;2023-05-23T00:22:13;93703.03;;;13.05;100.00
50093;BME280;35974;47.752;10.290;2023-05-23T00:24:42;93709.94;;;12.99;100.00
50093;BME280;35974;47.752;10.290;2023-05-23T00:27:09;93713.72;;;12.92;100.00
50093;BME280;35974;47.752;10.290;2023-05-23T00:29:35;93707.28;;;12.88;100.00
50093;BME280;35974;47.752;10.290;2023-05-23T00:32:01;93705.66;;;12.87;100.00
50093;BME280;35974;47.752;10.290;2023-05-23T00:34:28;93708.03;;;12.95;100.00
50093;BME280;35974;47.752;10.290;2023-05-23T00:36:54;93713.88;;;13.09;100.00
50093;BME280;35974;47.752;10.290;2023-05-23T00:39:23;93716.91;;;12.94;100.00
50093;BME280;35974;47.752;10.290;2023-05-23T00:41:50;93716.13;;;12.93;100.00
50093;BME280;35974;47.752;10.290;2023-05-23T00:44:18;93716.66;;;13.44;100.00
50093;BME280;35974;47.752;10.290;2023-05-23T00:46:46;93714.66;;;13.09;100.00
50093;BME280;35974;47.752;10.290;2023-05-23T00:49:16;93712.09;;;12.91;100.00
50093;BME280;35974;47.752;10.290;2023-05-23T00:51:45;93710.22;;;12.79;100.00
50093;BME280;35974;47.752;10.290;2023-05-23T00:54:12;93711.44;;;12.77;100.00
50093;BME280;35974;47.752;10.290;2023-05-23T00:56:39;93717.38;;;12.72;100.00
50093;BME280;35974;47.752;10.290;2023-05-23T00:59:06;93727.16;;;12.84;100.00
50093;BME280;35974;47.752;10.290;2023-05-23T01:01:33;93726.84;;;12.73;100.00
50093;BME280;35974;47.752;10.290;2023-05-23T01:06:53;93716.50;;;12.60;100.00
50093;BME280;35974;47.752;10.290;2023-05-23T01:09:27;93724.97;;;12.62;100.00
50093;BME280;35974;47.752;10.290;2023-05-23T01:12:13;93714.47;;;12.62;100.00
50093;BME280;35974;47.752;10.290;2023-05-23T01:14:46;93718.22;;;12.85;100.00
50093;BME280;35974;47.752;10.290;2023-05-23T01:27:55;93720.44;;;12.69;100.00
50093;BME280;35974;47.752;10.290;2023-05-23T01:30:23;93718.47;;;12.64;100.00
50093;BME280;35974;47.752;10.290;2023-05-23T01:35:26;93718.97;;;12.92;100.00
50093;BME280;35974;47.752;10.290;2023-05-23T01:37:53;93715.19;;;12.69;100.00
50093;BME280;35974;47.752;10.290;2023-05-23T01:40:20;93720.56;;;12.56;100.00
50093;BME280;35974;47.752;10.290;2023-05-23T01:42:46;93712.56;;;12.51;100.00
50093;BME280;35974;47.752;10.290;2023-05-23T01:45:13;93719.41;;;12.89;100.00
50093;BME280;35974;47.752;10.290;2023-05-23T01:47:40;93718.25;;;12.66;100.00
50093;BME280;35974;47.752;10.290;2023-05-23T01:50:07;93710.91;;;12.87;100.00
50093;BME280;35974;47.752;10.290;2023-05-23T01:52:34;93718.22;;;12.85;100.00
50093;BME280;35974;47.752;10.290;2023-05-23T01:55:02;93716.91;;;12.94;100.00
50093;BME280;35974;47.752;10.290;2023-05-23T01:57:31;93714.59;;;12.86;100.00
50093;BME280;35974;47.752;10.290;2023-05-23T01:59:58;93719.22;;;13.02;100.00
50093;BME280;35974;47.752;10.290;2023-05-23T02:02:25;93721.81;;;12.90;100.00
50093;BME280;35974;47.752;10.290;2023-05-23T02:04:51;93723.13;;;12.81;100.00
50093;BME280;35974;47.752;10.290;2023-05-23T02:07:19;93723.34;;;12.79;100.00
50093;BME280;35974;47.752;10.290;2023-05-23T02:09:48;93723.91;;;12.81;100.00
50093;BME280;35974;47.752;10.290;2023-05-23T02:12:15;93723.25;;;12.86;100.00
50093;BME280;35974;47.752;10.290;2023-05-23T02:14:41;93733.53;;;12.88;100.00
50093;BME280;35974;47.752;10.290;2023-05-23T02:17:07;93728.72;;;12.85;100.00
50093;BME280;35974;47.752;10.290;2023-05-23T02:19:46;93731.50;;;12.90;100.00
50093;BME280;35974;47.752;10.290;2023-05-23T02:22:13;93735.59;;;12.86;100.00
50093;BME280;35974;47.752;10.290;2023-05-23T02:24:39;93744.22;;;12.74;100.00
50093;BME280;35974;47.752;10.290;2023-05-23T02:27:06;93743.34;;;12.80;100.00
50093;BME280;35974;47.752;10.290;2023-05-23T02:29:36;93740.09;;;12.78;100.00
50093;BME280;35974;47.752;10.290;2023-05-23T02:32:03;93746.75;;;12.81;100.00
50093;BME280;35974;47.752;10.290;2023-05-23T02:34:29;93747.78;;;12.80;100.00
50093;BME280;35974;47.752;10.290;2023-05-23T02:36:56;93740.25;;;13.02;100.00
50093;BME280;35974;47.752;10.290;2023-05-23T02:39:22;93741.13;;;12.96;100.00
50093;BME280;35974;47.752;10.290;2023-05-23T02:41:48;93615.50;;;12.32;100.00
50093;BME280;35974;47.752;10.290;2023-05-23T02:44:15;93748.13;;;13.02;100.00
50093;BME280;35974;47.752;10.290;2023-05-23T02:46:41;93750.31;;;13.05;100.00
50093;BME280;35974;47.752;10.290;2023-05-23T02:49:10;93757.13;;;13.06;100.00
50093;BME280;35974;47.752;10.290;2023-05-23T02:51:36;93752.66;;;12.95;100.00
50093;BME280;35974;47.752;10.290;2023-05-23T02:54:03;93761.41;;;12.89;100.00
50093;BME280;35974;47.752;10.290;2023-05-23T02:56:29;93760.38;;;13.08;100.00
50093;BME280;35974;47.752;10.290;2023-05-23T02:58:55;93762.88;;;13.03;100.00
50093;BME280;35974;47.752;10.290;2023-05-23T03:01:22;93761.13;;;12.78;100.00
50093;BME280;35974;47.752;10.290;2023-05-23T03:03:48;93764.63;;;12.54;100.00
50093;BME280;35974;47.752;10.290;2023-05-23T03:06:15;93764.19;;;12.38;100.00
50093;BME280;35974;47.752;10.290;2023-05-23T03:08:42;93769.16;;;12.47;100.00
50093;BME280;35974;47.752;10.290;2023-05-23T03:11:08;93767.53;;;12.45;100.00
50093;BME280;35974;47.752;10.290;2023-05-23T03:13:35;93769.72;;;12.30;100.00
50093;BME280;35974;47.752;10.290;2023-05-23T03:16:01;93764.03;;;12.33;100.00
50093;BME280;35974;47.752;10.290;2023-05-23T03:18:28;93761.34;;;12.58;100.00
50093;BME280;35974;47.752;10.290;2023-05-23T03:20:54;93767.97;;;12.42;100.00
50093;BME280;35974;47.752;10.290;2023-05-23T03:23:21;93765.19;;;12.37;100.00
50093;BME280;35974;47.752;10.290;2023-05-23T03:25:47;93761.06;;;12.48;100.00
50093;BME280;35974;47.752;10.290;2023-05-23T03:28:14;93762.00;;;12.35;100.00
50093;BME280;35974;47.752;10.290;2023-05-23T03:30:40;93764.34;;;12.43;100.00
50093;BME280;35974;47.752;10.290;2023-05-23T03:33:08;93753.41;;;12.47;100.00
50093;BME280;35974;47.752;10.290;2023-05-23T03:35:35;93762.34;;;12.39;100.00
50093;BME280;35974;47.752;10.290;2023-05-23T03:38:01;93761.28;;;12.47;100.00
50093;BME280;35974;47.752;10.290;2023-05-23T03:40:28;93753.25;;;12.41;100.00
50093;BME280;35974;47.752;10.290;2023-05-23T03:43:13;93764.25;;;12.50;100.00
50093;BME280;35974;47.752;10.290;2023-05-23T03:45:40;93759.72;;;12.57;100.00
50093;BME280;35974;47.752;10.290;2023-05-23T03:48:07;93767.38;;;12.59;100.00
50093;BME280;35974;47.752;10.290;2023-05-23T03:50:34;93764.94;;;12.64;100.00
50093;BME280;35974;47.752;10.290;2023-05-23T03:53:00;93768.50;;;12.70;100.00
50093;BME280;35974;47.752;10.290;2023-05-23T03:55:27;93773.66;;;12.76;100.00
50093;BME280;35974;47.752;10.290;2023-05-23T03:57:57;93765.94;;;12.81;100.00
50093;BME280;35974;47.752;10.290;2023-05-23T04:00:23;93770.13;;;13.01;100.00
50093;BME280;35974;47.752;10.290;2023-05-23T04:02:50;93771.19;;;13.00;100.00
50093;BME280;35974;47.752;10.290;2023-05-23T04:05:17;93768.81;;;13.10;100.00
50093;BME280;35974;47.752;10.290;2023-05-23T04:07:44;93777.28;;;13.12;100.00
50093;BME280;35974;47.752;10.290;2023-05-23T04:10:10;93773.38;;;13.03;100.00
50093;BME280;35974;47.752;10.290;2023-05-23T04:12:52;93777.94;;;13.08;100.00
50093;BME280;35974;47.752;10.290;2023-05-23T04:15:27;93781.66;;;13.18;100.00
50093;BME280;35974;47.752;10.290;2023-05-23T04:17:54;93775.06;;;13.28;100.00
50093;BME280;35974;47.752;10.290;2023-05-23T04:20:21;93772.16;;;13.36;100.00
50093;BME280;35974;47.752;10.290;2023-05-23T04:22:48;93768.97;;;13.34;100.00
50093;BME280;35974;47.752;10.290;2023-05-23T04:25:14;93778.41;;;13.53;100.00
50093;BME280;35974;47.752;10.290;2023-05-23T04:28:02;93780.75;;;13.85;100.00
50093;BME280;35974;47.752;10.290;2023-05-23T04:30:28;93775.81;;;13.77;100.00
50093;BME280;35974;47.752;10.290;2023-05-23T04:32:55;93787.16;;;13.89;100.00
50093;BME280;35974;47.752;10.290;2023-05-23T04:35:26;93777.31;;;13.73;100.00
50093;BME280;35974;47.752;10.290;2023-05-23T04:37:59;93779.78;;;13.68;100.00
50093;BME280;35974;47.752;10.290;2023-05-23T04:40:27;93780.25;;;13.65;100.00
50093;BME280;35974;47.752;10.290;2023-05-23T04:42:54;93778.19;;;13.67;100.00
50093;BME280;35974;47.752;10.290;2023-05-23T04:45:31;93783.69;;;13.77;100.00
50093;BME280;35974;47.752;10.290;2023-05-23T04:48:10;93773.63;;;13.74;100.00
50093;BME280;35974;47.752;10.290;2023-05-23T04:50:38;93777.53;;;13.83;100.00
50093;BME280;35974;47.752;10.290;2023-05-23T04:53:05;93779.38;;;13.83;100.00
50093;BME280;35974;47.752;10.290;2023-05-23T04:55:32;93779.16;;;13.84;100.00
50093;BME280;35974;47.752;10.290;2023-05-23T04:57:59;93786.72;;;13.93;100.00
50093;BME280;35974;47.752;10.290;2023-05-23T05:00:26;93785.91;;;13.92;100.00
50093;BME280;35974;47.752;10.290;2023-05-23T05:02:53;93786.50;;;14.06;100.00
50093;BME280;35974;47.752;10.290;2023-05-23T05:05:19;93789.94;;;14.42;100.00
50093;BME280;35974;47.752;10.290;2023-05-23T05:07:45;93787.66;;;14.34;100.00
50093;BME280;35974;47.752;10.290;2023-05-23T05:10:15;93787.41;;;14.12;100.00
50093;BME280;35974;47.752;10.290;2023-05-23T05:12:45;93786.72;;;14.16;100.00
50093;BME280;35974;47.752;10.290;2023-05-23T05:15:12;93786.28;;;14.19;100.00
50093;BME280;35974;47.752;10.290;2023-05-23T05:17:38;93786.84;;;14.21;100.00
50093;BME280;35974;47.752;10.290;2023-05-23T05:20:05;93787.56;;;14.28;100.00
50093;BME280;35974;47.752;10.290;2023-05-23T05:22:34;93789.50;;;14.45;100.00
50093;BME280;35974;47.752;10.290;2023-05-23T05:25:01;93786.19;;;14.50;100.00
50093;BME280;35974;47.752;10.290;2023-05-23T05:27:28;93788.59;;;14.51;100.00
50093;BME280;35974;47.752;10.290;2023-05-23T05:29:55;93786.75;;;14.63;100.00
50093;BME280;35974;47.752;10.290;2023-05-23T05:32:29;93780.09;;;14.85;100.00
50093;BME280;35974;47.752;10.290;2023-05-23T05:34:59;93782.13;;;14.94;100.00
50093;BME280;35974;47.752;10.290;2023-05-23T05:37:26;93776.81;;;15.18;100.00
50093;BME280;35974;47.752;10.290;2023-05-23T05:39:53;93777.94;;;15.51;100.00
50093;BME280;35974;47.752;10.290;2023-05-23T05:42:22;93774.06;;;15.70;100.00
50093;BME280;35974;47.752;10.290;2023-05-23T05:45:00;93775.31;;;15.80;100.00
50093;BME280;35974;47.752;10.290;2023-05-23T05:47:33;93777.00;;;15.86;100.00
50093;BME280;35974;47.752;10.290;2023-05-23T05:50:01;93771.06;;;15.79;100.00
50093;BME280;35974;47.752;10.290;2023-05-23T05:52:35;93779.56;;;15.98;100.00
50093;BME280;35974;47.752;10.290;2023-05-23T05:55:05;93781.25;;;16.04;100.00
50093;BME280;35974;47.752;10.290;2023-05-23T05:57:31;93783.88;;;16.21;100.00
50093;BME280;35974;47.752;10.290;2023-05-23T05:59:58;93783.88;;;16.21;100.00
50093;BME280;35974;47.752;10.290;2023-05-23T06:02:25;93785.28;;;16.45;100.00
50093;BME280;35974;47.752;10.290;2023-05-23T06:04:52;93796.34;;;16.42;100.00
50093;BME280;35974;47.752;10.290;2023-05-23T06:07:18;93789.75;;;16.62;100.00
50093;BME280;35974;47.752;10.290;2023-05-23T06:09:45;93790.88;;;16.66;100.00
50093;BME280;35974;47.752;10.290;2023-05-23T06:12:15;93790.81;;;16.61;100.00
50093;BME280;35974;47.752;10.290;2023-05-23T06:14:41;93791.34;;;16.63;100.00
50093;BME280;35974;47.752;10.290;2023-05-23T06:17:09;93790.50;;;16.57;100.00
50093;BME280;35974;47.752;10.290;2023-05-23T06:19:35;93797.28;;;16.70;100.00
50093;BME280;35974;47.752;10.290;2023-05-23T06:22:03;93790.50;;;16.79;100.00
50093;BME280;35974;47.752;10.290;2023-05-23T06:24:30;93793.38;;;16.56;100.00
50093;BME280;35974;47.752;10.290;2023-05-23T06:26:59;93800.47;;;16.72;100.00
50093;BME280;35974;47.752;10.290;2023-05-23T06:29:26;93791.44;;;16.85;100.00
50093;BME280;35974;47.752;10.290;2023-05-23T06:34:22;93799.94;;;17.09;100.00
50093;BME280;35974;47.752;10.290;2023-05-23T06:36:49;93798.69;;;16.95;100.00
50093;BME280;35974;47.752;10.290;2023-05-23T06:39:17;93793.03;;;17.08;100.00
50093;BME280;35974;47.752;10.290;2023-05-23T06:41:45;93788.84;;;17.12;100.00
50093;BME280;35974;47.752;10.290;2023-05-23T06:44:12;93779.19;;;17.23;100.00
50093;BME280;35974;47.752;10.290;2023-05-23T06:46:38;93788.81;;;17.56;100.00
50093;BME280;35974;47.752;10.290;2023-05-23T06:49:05;93783.19;;;17.53;100.00
50093;BME280;35974;47.752;10.290;2023-05-23T06:51:38;93792.00;;;18.13;100.00
50093;BME280;35974;47.752;10.290;2023-05-23T06:54:05;93791.41;;;18.06;100.00
50093;BME280;35974;47.752;10.290;2023-05-23T06:56:31;93802.59;;;18.13;100.00
50093;BME280;35974;47.752;10.290;2023-05-23T06:58:57;93796.22;;;18.09;100.00
50093;BME280;35974;47.752;10.290;2023-05-23T07:01:25;93789.81;;;18.05;100.00
50093;BME280;35974;47.752;10.290;2023-05-23T07:03:51;93794.59;;;18.08;100.00
50093;BME280;35974;47.752;10.290;2023-05-23T07:06:18;93800.94;;;18.02;100.00
50093;BME280;35974;47.752;10.290;2023-05-23T07:08:44;93799.25;;;17.90;100.00
50093;BME280;35974;47.752;10.290;2023-05-23T07:11:11;93804.53;;;17.90;100.00
50093;BME280;35974;47.752;10.290;2023-05-23T07:13:38;93803.88;;;17.83;100.00
50093;BME280;35974;47.752;10.290;2023-05-23T07:16:04;93800.75;;;17.86;100.00
50093;BME280;35974;47.752;10.290;2023-05-23T07:18:31;93808.47;;;17.66;100.00
50093;BME280;35974;47.752;10.290;2023-05-23T07:20:57;93808.47;;;17.66;100.00
50093;BME280;35974;47.752;10.290;2023-05-23T07:23:23;93806.50;;;17.78;100.00
50093;BME280;35974;47.752;10.290;2023-05-23T07:25:50;93807.06;;;17.85;100.00
50093;BME280;35974;47.752;10.290;2023-05-23T07:28:27;93803.88;;;17.83;100.00
50093;BME280;35974;47.752;10.290;2023-05-23T07:30:53;93805.50;;;17.84;100.00
50093;BME280;35974;47.752;10.290;2023-05-23T07:33:22;93809.16;;;17.56;100.00
50093;BME280;35974;47.752;10.290;2023-05-23T07:35:53;93810.03;;;17.62;100.00
50093;BME280;35974;47.752;10.290;2023-05-23T07:38:19;93799.91;;;17.81;100.00
50093;BME280;35974;47.752;10.290;2023-05-23T07:40:46;93795.56;;;17.97;100.00
50093;BME280;35974;47.752;10.290;2023-05-23T07:43:24;93799.69;;;18.15;100.00
50093;BME280;35974;47.752;10.290;2023-05-23T07:45:50;93815.97;;;18.28;100.00
50093;BME280;35974;47.752;10.290;2023-05-23T07:48:16;93808.66;;;18.41;100.00
50093;BME280;35974;47.752;10.290;2023-05-23T07:50:43;93812.34;;;18.40;100.00
50093;BME280;35974;47.752;10.290;2023-05-23T07:53:09;93818.06;;;18.26;100.00
50093;BME280;35974;47.752;10.290;2023-05-23T07:55:40;93813.50;;;18.54;100.00
50093;BME280;35974;47.752;10.290;2023-05-23T07:58:06;93809.22;;;18.48;100.00
50093;BME280;35974;47.752;10.290;2023-05-23T08:00:33;93817.34;;;18.74;100.00
50093;BME280;35974;47.752;10.290;2023-05-23T08:03:01;93815.75;;;18.73;100.00
50093;BME280;35974;47.752;10.290;2023-05-23T08:05:28;93812.19;;;18.57;100.00
50093;BME280;35974;47.752;10.290;2023-05-23T08:07:54;93811.97;;;18.63;100.00
50093;BME280;35974;47.752;10.290;2023-05-23T08:10:21;93813.22;;;18.51;100.00
50093;BME280;35974;47.752;10.290;2023-05-23T08:12:47;93811.53;;;18.77;100.00
50093;BME280;35974;47.752;10.290;2023-05-23T08:15:14;93809.88;;;18.65;100.00
50093;BME280;35974;47.752;10.290;2023-05-23T08:17:40;93802.09;;;18.54;100.00
50093;BME280;35974;47.752;10.290;2023-05-23T08:20:07;93803.03;;;18.75;100.00
50093;BME280;35974;47.752;10.290;2023-05-23T08:22:34;93798.31;;;18.82;100.00
50093;BME280;35974;47.752;10.290;2023-05-23T08:25:01;93800.50;;;18.90;100.00
50093;BME280;35974;47.752;10.290;2023-05-23T08:27:28;93810.59;;;18.93;100.00
50093;BME280;35974;47.752;10.290;2023-05-23T08:29:55;93812.88;;;19.22;100.00
50093;BME280;35974;47.752;10.290;2023-05-23T08:32:21;93814.44;;;19.23;100.00
50093;BME280;35974;47.752;10.290;2023-05-23T08:34:48;93822.91;;;19.20;100.00
50093;BME280;35974;47.752;10.290;2023-05-23T08:37:15;93804.34;;;19.20;100.00
50093;BME280;35974;47.752;10.290;2023-05-23T08:39:41;93817.69;;;19.35;100.00
50093;BME280;35974;47.752;10.290;2023-05-23T08:42:07;93817.22;;;19.59;100.00
50093;BME280;35974;47.752;10.290;2023-05-23T08:44:34;93812.47;;;19.66;100.00
50093;BME280;35974;47.752;10.290;2023-05-23T08:47:02;93818.31;;;19.63;100.00
50093;BME280;35974;47.752;10.290;2023-05-23T08:49:30;93819.84;;;19.44;100.00
50093;BME280;35974;47.752;10.290;2023-05-23T08:51:59;93816.94;;;19.55;100.00
50093;BME280;35974;47.752;10.290;2023-05-23T08:54:26;93829.94;;;19.47;100.00
50093;BME280;35974;47.752;10.290;2023-05-23T08:56:54;93827.31;;;19.52;100.00
50093;BME280;35974;47.752;10.290;2023-05-23T08:59:21;93831.06;;;19.71;100.00
50093;BME280;35974;47.752;10.290;2023-05-23T09:01:47;93828.69;;;19.70;100.00
50093;BME280;35974;47.752;10.290;2023-05-23T09:04:14;93825.19;;;19.64;100.00
50093;BME280;35974;47.752;10.290;2023-05-23T09:06:41;93829.69;;;19.53;100.00
50093;BME280;35974;47.752;10.290;2023-05-23T09:09:07;93829.44;;;19.55;100.00
50093;BME280;35974;47.752;10.290;2023-05-23T09:11:34;93834.66;;;19.39;100.00
50093;BME280;35974;47.752;10.290;2023-05-23T09:14:01;93839.53;;;19.53;100.00
50093;BME280;35974;47.752;10.290;2023-05-23T09:16:30;93840.06;;;19.60;100.00
50093;BME280;35974;47.752;10.290;2023-05-23T09:19:08;93840.03;;;19.50;100.00
50093;BME280;35974;47.752;10.290;2023-05-23T09:21:35;93851.72;;;19.54;100.00
50093;BME280;35974;47.752;10.290;2023-05-23T09:24:02;93847.47;;;19.53;100.00
50093;BME280;35974;47.752;10.290;2023-05-23T09:26:28;93846.16;;;19.61;100.00
50093;BME280;35974;47.752;10.290;2023-05-23T09:28:58;93851.09;;;19.36;100.00
50093;BME280;35974;47.752;10.290;2023-05-23T09:31:25;93845.88;;;19.57;100.00
50093;BME280;35974;47.752;10.290;2023-05-23T09:33:56;93835.28;;;19.67;100.00
50093;BME280;35974;47.752;10.290;2023-05-23T09:36:26;93827.94;;;19.80;100.00
50093;BME280;35974;47.752;10.290;2023-05-23T09:38:54;93821.53;;;19.75;100.00
50093;BME280;35974;47.752;10.290;2023-05-23T09:41:21;93832.47;;;19.21;100.00
50093;BME280;35974;47.752;10.290;2023-05-23T09:43:48;93828.25;;;19.25;100.00
50093;BME280;35974;47.752;10.290;2023-05-23T09:46:15;93831.06;;;19.71;100.00
50093;BME280;35974;47.752;10.290;2023-05-23T09:48:47;93821.84;;;20.00;100.00
50093;BME280;35974;47.752;10.290;2023-05-23T09:51:20;93825.28;;;19.85;100.00
50093;BME280;35974;47.752;10.290;2023-05-23T09:53:46;93825.75;;;19.71;100.00
50093;BME280;35974;47.752;10.290;2023-05-23T09:56:17;93819.97;;;19.85;100.00
50093;BME280;35974;47.752;10.290;2023-05-23T09:58:47;93813.09;;;19.94;100.00
50093;BME280;35974;47.752;10.290;2023-05-23T10:01:14;93816.31;;;20.17;100.00
50093;BME280;35974;47.752;10.290;2023-05-23T10:03:51;93816.81;;;19.93;100.00
50093;BME280;35974;47.752;10.290;2023-05-23T10:06:24;93807.00;;;20.09;100.00
50093;BME280;35974;47.752;10.290;2023-05-23T10:08:54;93810.47;;;20.30;100.00
50093;BME280;35974;47.752;10.290;2023-05-23T10:14:06;93802.50;;;20.56;100.00
50093;BME280;35974;47.752;10.290;2023-05-23T10:16:48;93803.56;;;20.49;100.00
50093;BME280;35974;47.752;10.290;2023-05-23T10:21:48;93801.31;;;21.13;100.00
50093;BME280;35974;47.752;10.290;2023-05-23T10:24:15;93799.63;;;21.38;100.00
50093;BME280;35974;47.752;10.290;2023-05-23T10:26:42;93806.09;;;21.16;100.00
50093;BME280;35974;47.752;10.290;2023-05-23T10:29:08;93809.28;;;21.24;100.00
50093;BME280;35974;47.752;10.290;2023-05-23T10:31:36;93805.50;;;21.40;100.00
50093;BME280;35974;47.752;10.290;2023-05-23T10:34:07;93811.72;;;21.10;100.00
50093;BME280;35974;47.752;10.290;2023-05-23T10:36:42;93803.56;;;20.70;100.00
50093;BME280;35974;47.752;10.290;2023-05-23T10:42:01;93798.25;;;20.70;100.00
50093;BME280;35974;47.752;10.290;2023-05-23T10:44:29;93792.31;;;21.04;100.00
50093;BME280;35974;47.752;10.290;2023-05-23T10:46:56;93792.81;;;21.16;100.00
50093;BME280;35974;47.752;10.290;2023-05-23T10:50:09;93797.78;;;21.38;100.00
50093;BME280;35974;47.752;10.290;2023-05-23T10:54:47;93794.97;;;21.09;100.00
50093;BME280;35974;47.752;10.290;2023-05-23T10:57:15;93795.97;;;21.29;100.00
50093;BME280;35974;47.752;10.290;2023-05-23T10:59:42;93791.16;;;21.31;100.00
50093;BME280;35974;47.752;10.290;2023-05-23T11:02:15;93799.69;;;21.28;100.00
50093;BME280;35974;47.752;10.290;2023-05-23T11:04:43;93812.06;;;20.52;100.00
50093;BME280;35974;47.752;10.290;2023-05-23T11:07:27;93831.69;;;19.99;100.00
50093;BME280;35974;47.752;10.290;2023-05-23T11:12:37;93840.31;;;18.63;100.00
50093;BME280;35974;47.752;10.290;2023-05-23T11:17:49;93849.72;;;17.62;100.00
50093;BME280;35974;47.752;10.290;2023-05-23T11:20:17;93844.50;;;17.23;100.00
50093;BME280;35974;47.752;10.290;2023-05-23T11:25:42;93845.44;;;16.77;100.00
50093;BME280;35974;47.752;10.290;2023-05-23T11:28:14;93850.59;;;16.67;100.00
50093;BME280;35974;47.752;10.290;2023-05-23T11:30:42;93853.66;;;16.59;100.00
50093;BME280;35974;47.752;10.290;2023-05-23T11:33:11;93860.03;;;16.63;100.00
50093;BME280;35974;47.752;10.290;2023-05-23T11:35:43;93858.72;;;16.82;100.00
50093;BME280;35974;47.752;10.290;2023-05-23T11:38:10;93858.09;;;17.09;100.00
50093;BME280;35974;47.752;10.290;2023-05-23T11:40:39;93862.97;;;17.00;100.00
50093;BME280;35974;47.752;10.290;2023-05-23T11:43:08;93850.22;;;17.14;100.00
50093;BME280;35974;47.752;10.290;2023-05-23T11:45:35;93856.75;;;17.29;100.00
50093;BME280;35974;47.752;10.290;2023-05-23T11:48:12;93846.88;;;17.46;100.00
50093;BME280;35974;47.752;10.290;2023-05-23T11:50:46;93847.72;;;17.74;100.00
50093;BME280;35974;47.752;10.290;2023-05-23T11:53:15;93849.59;;;17.51;100.00
50093;BME280;35974;47.752;10.290;2023-05-23T11:55:47;93850.94;;;17.32;100.00
50093;BME280;35974;47.752;10.290;2023-05-23T11:58:14;93845.34;;;17.50;100.00
50093;BME280;35974;47.752;10.290;2023-05-23T12:00:42;93848.50;;;17.47;100.00
50093;BME280;35974;47.752;10.290;2023-05-23T12:03:09;93842.09;;;17.43;100.00
50093;BME280;35974;47.752;10.290;2023-05-23T12:05:37;93844.91;;;17.59;100.00
50093;BME280;35974;47.752;10.290;2023-05-23T12:08:06;93847.22;;;17.77;100.00
50093;BME280;35974;47.752;10.290;2023-05-23T12:10:37;93842.22;;;17.53;100.00
50093;BME280;35974;47.752;10.290;2023-05-23T12:13:15;93842.31;;;17.64;100.00
50093;BME280;35974;47.752;10.290;2023-05-23T12:15:46;93859.06;;;17.47;100.00
50093;BME280;35974;47.752;10.290;2023-05-23T12:18:14;93853.03;;;17.30;100.00
50093;BME280;35974;47.752;10.290;2023-05-23T12:20:42;93852.13;;;17.63;100.00
50093;BME280;35974;47.752;10.290;2023-05-23T12:25:41;93852.56;;;17.33;100.00
50093;BME280;35974;47.752;10.290;2023-05-23T12:28:09;93857.28;;;17.31;100.00
50093;BME280;35974;47.752;10.290;2023-05-23T12:30:41;93853.19;;;17.40;100.00
50093;BME280;35974;47.752;10.290;2023-05-23T12:33:08;93856.47;;;17.52;100.00
50093;BME280;35974;47.752;10.290;2023-05-23T12:35:35;93852.31;;;17.56;100.00
50093;BME280;35974;47.752;10.290;2023-05-23T12:38:04;93845.03;;;17.69;100.00
50093;BME280;35974;47.752;10.290;2023-05-23T12:40:32;93841.38;;;17.97;100.00
50093;BME280;35974;47.752;10.290;2023-05-23T12:42:59;93829.88;;;18.14;100.00
50093;BME280;35974;47.752;10.290;2023-05-23T12:45:34;93837.06;;;18.18;100.00
50093;BME280;35974;47.752;10.290;2023-05-23T12:48:03;93838.53;;;18.04;100.00
50093;BME280;35974;47.752;10.290;2023-05-23T12:50:30;93840.13;;;18.37;100.00
50093;BME280;35974;47.752;10.290;2023-05-23T12:52:56;93840.56;;;18.61;100.00
50093;BME280;35974;47.752;10.290;2023-05-23T12:55:24;93841.91;;;18.59;100.00
50093;BME280;35974;47.752;10.290;2023-05-23T12:57:50;93836.66;;;18.32;100.00
50093;BME280;35974;47.752;10.290;2023-05-23T13:00:17;93843.50;;;18.27;100.00
50093;BME280;35974;47.752;10.290;2023-05-23T13:02:44;93837.41;;;18.00;100.00
50093;BME280;35974;47.752;10.290;2023-05-23T13:05:11;93848.97;;;17.88;100.00
50093;BME280;35974;47.752;10.290;2023-05-23T13:07:39;93855.50;;;17.59;100.00
50093;BME280;35974;47.752;10.290;2023-05-23T13:10:06;93856.69;;;17.46;100.00
50093;BME280;35974;47.752;10.290;2023-05-23T13:12:33;93856.88;;;17.39;100.00
50093;BME280;35974;47.752;10.290;2023-05-23T13:15:00;93855.22;;;16.94;100.00
50093;BME280;35974;47.752;10.290;2023-05-23T13:17:27;93851.84;;;16.98;100.00
50093;BME280;35974;47.752;10.290;2023-05-23T13:19:53;93844.66;;;16.77;100.00
50093;BME280;35974;47.752;10.290;2023-05-23T13:22:20;93848.38;;;16.59;100.00
50093;BME280;35974;47.752;10.290;2023-05-23T13:24:47;93848.47;;;17.03;100.00